createdAt,value
2023-03-29T00:02:30.487Z,0.70
2023-03-29T00:05:02.194Z,0.70
2023-03-29T00:07:30.351Z,0.70
2023-03-29T00:09:58.114Z,0.70
2023-03-29T00:12:25.191Z,0.70
2023-03-29T00:14:52.428Z,0.70
2023-03-29T00:17:19.410Z,0.70
2023-03-29T00:19:47.345Z,0.70
2023-03-29T00:22:14.544Z,0.70
2023-03-29T00:24:41.626Z,0.70
2023-03-29T00:27:08.578Z,0.70
2023-03-29T00:29:35.665Z,0.70
2023-03-29T00:32:02.585Z,0.70
2023-03-29T00:34:32.377Z,0.70
2023-03-29T00:36:59.416Z,0.70
2023-03-29T00:39:28.062Z,0.70
2023-03-29T00:41:55.368Z,0.70
2023-03-29T00:44:59.662Z,0.70
2023-03-29T00:47:38.261Z,0.70
2023-03-29T00:50:11.194Z,0.70
2023-03-29T00:52:41.333Z,0.70
2023-03-29T00:55:13.815Z,0.70
2023-03-29T00:57:46.789Z,0.70
2023-03-29T01:00:21.104Z,0.60
2023-03-29T01:02:54.270Z,0.60
2023-03-29T01:05:31.073Z,0.70
2023-03-29T01:08:04.492Z,0.70
2023-03-29T01:10:42.570Z,0.70
2023-03-29T01:13:14.791Z,0.70
2023-03-29T01:15:45.507Z,0.60
2023-03-29T01:18:12.790Z,0.70
2023-03-29T01:21:05.076Z,0.70
2023-03-29T01:24:06.957Z,0.70
2023-03-29T01:26:56.213Z,0.70
2023-03-29T01:29:23.177Z,0.60
2023-03-29T01:32:03.913Z,0.70
2023-03-29T01:34:43.513Z,0.70
2023-03-29T01:37:37.714Z,0.70
2023-03-29T01:40:06.429Z,0.70
2023-03-29T01:42:50.550Z,0.60
2023-03-29T01:45:38.200Z,0.60
2023-03-29T01:48:16.629Z,0.60
2023-03-29T01:51:24.013Z,0.60
2023-03-29T01:53:57.432Z,0.60
2023-03-29T01:56:28.386Z,0.60
2023-03-29T01:59:04.182Z,0.60
2023-03-29T02:01:38.650Z,0.60
2023-03-29T02:04:10.764Z,0.50
2023-03-29T02:06:39.749Z,0.50
2023-03-29T02:09:07.332Z,0.50
2023-03-29T02:11:36.119Z,0.60
2023-03-29T02:14:03.634Z,0.60
2023-03-29T02:16:36.013Z,0.60
2023-03-29T02:19:03.706Z,0.50
2023-03-29T02:21:44.680Z,0.50
2023-03-29T02:24:13.864Z,0.50
2023-03-29T02:26:41.007Z,0.50
2023-03-29T02:29:08.214Z,0.40
2023-03-29T02:31:58.429Z,0.40
2023-03-29T02:34:39.090Z,0.30
2023-03-29T02:37:13.679Z,0.40
2023-03-29T02:39:41.399Z,0.40
2023-03-29T02:42:10.243Z,0.40
2023-03-29T02:44:40.921Z,0.30
2023-03-29T02:47:37.309Z,0.40
2023-03-29T02:50:05.450Z,0.40
2023-03-29T02:52:39.524Z,0.40
2023-03-29T02:55:14.802Z,0.40
2023-03-29T02:57:43.665Z,0.40
2023-03-29T03:00:12.313Z,0.40
2023-03-29T03:02:39.453Z,0.30
2023-03-29T03:05:06.923Z,0.40
2023-03-29T03:07:33.904Z,0.40
2023-03-29T03:10:01.139Z,0.40
2023-03-29T03:12:28.299Z,0.40
2023-03-29T03:14:55.198Z,0.40
2023-03-29T03:17:23.319Z,0.40
2023-03-29T03:19:50.707Z,0.40
2023-03-29T03:22:17.820Z,0.40
2023-03-29T03:24:46.402Z,0.40
2023-03-29T03:27:13.790Z,0.40
2023-03-29T03:29:41.533Z,0.50
2023-03-29T03:32:08.661Z,0.40
2023-03-29T03:34:35.897Z,0.50
2023-03-29T03:37:02.839Z,0.50
2023-03-29T03:39:29.897Z,0.50
2023-03-29T03:41:56.834Z,0.50
2023-03-29T03:44:23.788Z,0.50
2023-03-29T03:46:51.060Z,0.50
2023-03-29T03:49:19.401Z,0.50
2023-03-29T03:51:46.405Z,0.50
2023-03-29T03:54:13.390Z,0.50
2023-03-29T03:56:40.345Z,0.50
2023-03-29T03:59:07.376Z,0.50
2023-03-29T04:01:35.489Z,0.50
2023-03-29T04:04:03.243Z,0.50
2023-03-29T04:06:30.744Z,0.50
2023-03-29T04:08:57.985Z,0.50
2023-03-29T04:11:25.780Z,0.50
2023-03-29T04:13:52.842Z,0.50
2023-03-29T04:16:19.832Z,0.50
2023-03-29T04:18:47.231Z,0.50
2023-03-29T04:21:14.296Z,0.50
2023-03-29T04:23:43.066Z,0.50
2023-03-29T04:26:22.207Z,0.50
2023-03-29T04:28:49.185Z,0.40
2023-03-29T04:31:17.181Z,0.40
2023-03-29T04:33:46.832Z,0.40
2023-03-29T04:36:15.924Z,0.30
2023-03-29T04:38:47.426Z,0.30
2023-03-29T04:41:15.633Z,0.30
2023-03-29T04:43:46.637Z,0.40
2023-03-29T04:46:15.186Z,0.40
2023-03-29T04:48:42.753Z,0.40
2023-03-29T04:51:09.686Z,0.40
2023-03-29T04:53:36.878Z,0.30
2023-03-29T04:56:04.026Z,0.30
2023-03-29T04:58:32.575Z,0.20
2023-03-29T05:00:59.978Z,0.20
2023-03-29T05:03:27.245Z,0.10
2023-03-29T05:05:54.243Z,0.10
2023-03-29T05:08:21.440Z,0.10
2023-03-29T05:10:49.942Z,0.10
2023-03-29T05:13:16.970Z,0.20
2023-03-29T05:15:43.957Z,0.20
2023-03-29T05:18:10.952Z,0.20
2023-03-29T05:20:38.565Z,0.30
2023-03-29T05:23:05.502Z,0.30
2023-03-29T05:25:33.655Z,0.30
2023-03-29T05:28:01.591Z,0.40
2023-03-29T05:30:28.551Z,0.30
2023-03-29T05:32:56.781Z,0.30
2023-03-29T05:35:25.611Z,0.40
2023-03-29T05:37:52.578Z,0.40
2023-03-29T05:40:19.689Z,0.50
2023-03-29T05:42:47.142Z,0.50
2023-03-29T05:45:14.129Z,0.60
2023-03-29T05:47:41.102Z,0.60
2023-03-29T05:52:52.630Z,0.70
2023-03-29T05:55:19.660Z,0.80
2023-03-29T05:57:46.860Z,0.90
2023-03-29T06:00:21.765Z,0.80
2023-03-29T06:02:48.800Z,0.80
2023-03-29T06:05:16.680Z,0.70
2023-03-29T06:07:43.776Z,0.70
2023-03-29T06:10:11.190Z,0.70
2023-03-29T06:12:38.123Z,0.60
2023-03-29T06:15:06.175Z,0.50
2023-03-29T06:17:33.861Z,0.50
2023-03-29T06:20:01.720Z,0.50
2023-03-29T06:22:28.780Z,0.40
2023-03-29T06:24:55.745Z,0.40
2023-03-29T06:27:23.602Z,0.40
2023-03-29T06:29:50.596Z,0.40
2023-03-29T06:32:17.808Z,0.50
2023-03-29T06:34:44.780Z,0.60
2023-03-29T06:37:11.768Z,0.60
2023-03-29T06:39:38.762Z,0.60
2023-03-29T06:42:19.970Z,0.60
2023-03-29T06:44:48.278Z,0.60
2023-03-29T06:47:16.529Z,0.70
2023-03-29T06:49:44.209Z,0.90
2023-03-29T06:52:11.504Z,0.90
2023-03-29T06:54:38.991Z,1.00
2023-03-29T06:57:05.981Z,1.10
2023-03-29T06:59:33.515Z,1.10
2023-03-29T07:02:00.490Z,1.10
2023-03-29T07:04:27.547Z,1.20
2023-03-29T07:07:01.722Z,1.20
2023-03-29T07:09:30.709Z,1.30
2023-03-29T07:11:59.112Z,1.40
2023-03-29T07:14:28.972Z,1.50
2023-03-29T07:16:56.375Z,1.50
2023-03-29T07:19:25.349Z,1.60
2023-03-29T07:21:53.466Z,1.60
2023-03-29T07:24:21.490Z,1.60
2023-03-29T07:27:00.268Z,1.70
2023-03-29T07:29:30.042Z,1.70
2023-03-29T07:31:57.375Z,1.80
2023-03-29T07:34:24.496Z,1.70
2023-03-29T07:36:52.152Z,1.60
2023-03-29T07:39:19.127Z,1.70
2023-03-29T07:41:49.275Z,2.00
2023-03-29T07:46:56.411Z,1.90
2023-03-29T07:49:23.387Z,1.90
2023-03-29T07:51:53.693Z,2.20
2023-03-29T07:54:21.862Z,2.60
2023-03-29T07:56:50.228Z,2.60
2023-03-29T07:59:17.429Z,2.40
2023-03-29T08:01:44.875Z,2.20
2023-03-29T08:04:12.261Z,2.10
2023-03-29T08:06:39.492Z,2.00
2023-03-29T08:09:07.029Z,2.00
2023-03-29T08:11:34.414Z,1.90
2023-03-29T08:14:01.359Z,1.80
2023-03-29T08:16:28.495Z,1.70
2023-03-29T08:18:55.501Z,1.70
2023-03-29T08:21:22.551Z,1.80
2023-03-29T08:23:49.525Z,1.80
2023-03-29T08:26:16.517Z,1.80
2023-03-29T08:28:44.093Z,1.80
2023-03-29T08:31:11.925Z,1.70
2023-03-29T08:33:39.015Z,1.70
2023-03-29T08:36:06.784Z,1.70
2023-03-29T08:38:33.832Z,1.90
2023-03-29T08:41:00.992Z,2.00
2023-03-29T08:44:01.500Z,1.90
2023-03-29T08:46:44.283Z,1.80
2023-03-29T08:49:12.735Z,1.80
2023-03-29T08:51:53.200Z,2.10
2023-03-29T08:54:27.294Z,2.60
2023-03-29T08:57:03.214Z,2.60
2023-03-29T08:59:33.203Z,2.30
2023-03-29T09:02:02.275Z,2.00
2023-03-29T09:04:33.196Z,1.70
2023-03-29T09:07:00.124Z,1.80
2023-03-29T09:09:33.523Z,2.10
2023-03-29T09:12:28.574Z,2.20
2023-03-29T09:15:14.348Z,2.40
2023-03-29T09:18:06.458Z,2.30
2023-03-29T09:21:03.479Z,2.20
2023-03-29T09:24:02.273Z,2.20
2023-03-29T09:26:38.959Z,2.10
2023-03-29T09:29:24.023Z,1.90
2023-03-29T09:31:51.640Z,1.70
2023-03-29T09:34:26.351Z,2.00
2023-03-29T09:36:58.478Z,2.50
2023-03-29T09:39:28.122Z,2.80
2023-03-29T09:42:12.776Z,2.90
2023-03-29T09:44:52.808Z,2.80
2023-03-29T09:47:35.323Z,2.60
2023-03-29T09:50:27.287Z,2.50
2023-03-29T09:52:57.113Z,2.50
2023-03-29T09:55:28.422Z,2.30
2023-03-29T09:58:00.811Z,2.20
2023-03-29T10:00:28.637Z,2.10
2023-03-29T10:02:57.915Z,2.00
2023-03-29T10:05:26.411Z,1.90
2023-03-29T10:07:57.977Z,1.80
2023-03-29T10:10:30.787Z,1.70
2023-03-29T10:13:05.452Z,1.80
2023-03-29T10:15:33.012Z,1.90
2023-03-29T10:18:10.907Z,2.00
2023-03-29T10:20:40.296Z,2.30
2023-03-29T10:23:09.149Z,2.60
2023-03-29T10:25:42.771Z,2.80
2023-03-29T10:28:17.676Z,2.50
2023-03-29T10:30:52.460Z,2.30
2023-03-29T10:33:24.110Z,2.20
2023-03-29T10:35:51.781Z,2.20
2023-03-29T10:38:21.045Z,2.20
2023-03-29T10:40:53.286Z,2.30
2023-03-29T10:43:24.763Z,2.40
2023-03-29T10:45:56.960Z,2.70
2023-03-29T10:48:31.303Z,2.60
2023-03-29T10:51:00.543Z,2.40
2023-03-29T10:53:31.803Z,2.30
2023-03-29T10:56:32.674Z,2.30
2023-03-29T10:59:05.712Z,2.20
2023-03-29T11:01:51.807Z,2.10
2023-03-29T11:04:44.148Z,2.10
2023-03-29T11:07:36.049Z,2.20
2023-03-29T11:10:26.182Z,2.20
2023-03-29T11:12:55.941Z,2.00
2023-03-29T11:15:25.870Z,2.10
2023-03-29T11:18:03.991Z,2.30
2023-03-29T11:20:43.700Z,2.30
2023-03-29T11:23:19.473Z,2.30
2023-03-29T11:25:46.392Z,2.40
2023-03-29T11:28:35.409Z,2.50
2023-03-29T11:31:11.736Z,2.60
2023-03-29T11:33:49.890Z,2.50
2023-03-29T11:36:45.596Z,2.50
2023-03-29T11:39:17.904Z,2.40
2023-03-29T11:41:49.928Z,2.30
2023-03-29T11:44:19.942Z,2.30
2023-03-29T11:47:09.990Z,2.20
2023-03-29T11:50:14.725Z,2.20
2023-03-29T11:52:48.208Z,2.10
2023-03-29T11:55:19.381Z,1.90
2023-03-29T11:58:15.756Z,1.80
2023-03-29T12:00:56.414Z,1.80
2023-03-29T12:03:32.844Z,1.70
2023-03-29T12:06:08.464Z,1.70
2023-03-29T12:08:39.740Z,1.70
2023-03-29T12:11:54.583Z,1.80
2023-03-29T12:14:28.416Z,2.00
2023-03-29T12:17:04.471Z,2.30
2023-03-29T12:19:42.698Z,2.60
2023-03-29T12:22:10.654Z,2.90
2023-03-29T12:24:41.740Z,3.00
2023-03-29T12:27:31.776Z,2.90
2023-03-29T12:30:04.589Z,2.60
2023-03-29T12:32:53.410Z,2.40
2023-03-29T12:35:45.008Z,2.20
2023-03-29T12:38:14.940Z,2.10
2023-03-29T12:40:44.548Z,2.30
2023-03-29T12:43:25.028Z,2.20
2023-03-29T12:46:14.505Z,2.10
2023-03-29T12:48:42.706Z,2.30
2023-03-29T12:51:16.114Z,2.40
2023-03-29T12:53:48.933Z,2.30
2023-03-29T12:56:21.904Z,2.20
2023-03-29T12:59:23.528Z,2.10
2023-03-29T13:02:04.421Z,2.00
2023-03-29T13:04:37.503Z,2.10
2023-03-29T13:07:06.168Z,2.20
2023-03-29T13:09:36.788Z,2.10
2023-03-29T13:12:27.244Z,2.10
2023-03-29T21:13:55.274Z,-2.90
2023-03-29T21:16:22.313Z,-2.90
2023-03-29T21:18:49.337Z,-2.80
2023-03-29T21:21:16.453Z,-2.70
2023-03-29T21:23:43.611Z,-2.60
2023-03-29T21:26:10.597Z,-2.60
2023-03-29T21:28:37.844Z,-2.60
2023-03-29T21:31:06.280Z,-2.50
2023-03-29T21:33:36.252Z,-2.50
2023-03-29T21:36:03.371Z,-2.50
2023-03-29T21:38:30.820Z,-2.40
2023-03-29T21:40:58.479Z,-2.30
2023-03-29T21:43:25.677Z,-2.20
2023-03-29T21:45:52.618Z,-2.20
2023-03-29T21:48:19.565Z,-2.10
2023-03-29T21:50:50.761Z,-2.10
2023-03-29T21:53:20.091Z,-2.00
2023-03-29T21:55:50.737Z,-2.00
2023-03-29T21:58:18.812Z,-2.00
2023-03-29T22:00:47.291Z,-2.00
2023-03-29T22:03:15.890Z,-2.00
2023-03-29T22:05:44.013Z,-2.00
2023-03-29T22:08:11.934Z,-2.00
2023-03-29T22:10:41.522Z,-1.90
2023-03-29T22:13:09.339Z,-2.00
2023-03-29T22:15:36.668Z,-2.00
2023-03-29T22:18:04.091Z,-2.00
2023-03-29T22:20:35.522Z,-2.10
2023-03-29T22:23:03.472Z,-2.10
2023-03-29T22:25:31.909Z,-2.20
2023-03-29T22:27:58.934Z,-2.10
2023-03-29T22:30:25.993Z,-2.10
2023-03-29T22:32:53.021Z,-2.10
2023-03-29T22:35:20.606Z,-2.10
2023-03-29T22:37:47.554Z,-2.00
2023-03-29T22:40:14.691Z,-2.00
2023-03-29T22:42:41.740Z,-1.90
2023-03-29T22:45:09.188Z,-1.80
2023-03-29T22:47:36.259Z,-1.70
2023-03-29T22:50:03.372Z,-1.60
2023-03-29T22:52:31.041Z,-1.50
2023-03-29T22:54:58.361Z,-1.50
2023-03-29T22:57:25.577Z,-1.50
2023-03-29T22:59:52.600Z,-1.40
2023-03-29T23:02:19.637Z,-1.30
2023-03-29T23:04:47.765Z,-1.30
2023-03-29T23:07:14.835Z,-1.30
2023-03-29T23:09:42.425Z,-1.30
2023-03-29T23:12:09.963Z,-1.30
2023-03-29T23:14:37.725Z,-1.20
2023-03-29T23:17:04.862Z,-1.20
2023-03-29T23:19:31.976Z,-1.20
2023-03-29T23:21:58.957Z,-1.10
2023-03-29T23:24:25.933Z,-1.10
2023-03-29T23:26:52.852Z,-1.10
2023-03-29T23:29:20.266Z,-1.10
2023-03-29T23:31:47.766Z,-1.00
2023-03-29T23:34:14.937Z,-1.10
2023-03-29T23:36:42.041Z,-1.10
2023-03-29T23:39:10.048Z,-1.10
2023-03-29T23:41:40.257Z,-1.10
2023-03-29T23:44:07.359Z,-1.10
2023-03-29T23:46:34.742Z,-1.00
2023-03-29T23:49:01.912Z,-1.00
2023-03-29T23:51:30.680Z,-1.00
2023-03-29T23:53:57.636Z,-0.90
2023-03-29T23:56:32.057Z,-0.90
2023-03-29T23:58:59.004Z,-0.90
